createdAt,value
2018-05-04T00:01:50.247Z,52.50
2018-05-04T00:04:18.523Z,52.70
2018-05-04T00:06:46.255Z,52.70
2018-05-04T00:09:13.747Z,52.80
2018-05-04T00:11:41.215Z,52.80
2018-05-04T00:14:08.734Z,53.00
2018-05-04T00:16:36.520Z,53.20
2018-05-04T00:19:04.060Z,53.30
2018-05-04T00:21:31.582Z,53.40
2018-05-04T00:23:59.091Z,53.70
2018-05-04T00:26:31.730Z,53.80
2018-05-04T00:28:59.211Z,53.70
2018-05-04T00:31:26.740Z,53.60
2018-05-04T00:33:54.276Z,53.70
2018-05-04T00:36:36.387Z,53.80
2018-05-04T00:39:04.902Z,54.00
2018-05-04T00:41:33.203Z,54.30
2018-05-04T00:44:00.912Z,54.20
2018-05-04T00:46:28.391Z,54.30
2018-05-04T00:48:55.876Z,54.40
2018-05-04T00:51:23.628Z,54.60
2018-05-04T00:54:02.793Z,54.70
2018-05-04T00:56:44.863Z,54.70
2018-05-04T00:59:12.380Z,54.90
2018-05-04T01:01:39.855Z,55.00
2018-05-04T01:04:07.333Z,55.00
2018-05-04T01:06:35.060Z,55.00
2018-05-04T01:09:02.594Z,55.20
2018-05-04T01:11:30.075Z,55.30
2018-05-04T01:13:57.536Z,55.20
2018-05-04T01:16:25.833Z,55.40
2018-05-04T01:18:53.335Z,55.30
2018-05-04T01:21:20.894Z,55.50
2018-05-04T01:23:49.160Z,55.90
2018-05-04T01:26:18.576Z,55.70
2018-05-04T01:28:46.069Z,56.10
2018-05-04T01:31:14.327Z,56.10
2018-05-04T01:33:41.963Z,56.10
2018-05-04T01:36:09.426Z,56.20
2018-05-04T01:38:36.890Z,56.40
2018-05-04T01:41:05.278Z,56.50
2018-05-04T01:43:33.498Z,57.00
2018-05-04T01:46:01.027Z,56.90
2018-05-04T01:48:28.529Z,57.20
2018-05-04T01:50:56.058Z,57.20
2018-05-04T01:53:23.532Z,57.20
2018-05-04T01:55:51.587Z,57.20
2018-05-04T01:59:04.601Z,57.20
2018-05-04T02:01:32.083Z,57.40
2018-05-04T02:04:00.398Z,57.30
2018-05-04T02:06:28.783Z,57.40
2018-05-04T02:08:56.242Z,57.60
2018-05-04T02:11:25.003Z,57.80
2018-05-04T02:13:53.287Z,57.90
2018-05-04T02:16:20.808Z,57.90
2018-05-04T02:18:55.371Z,58.00
2018-05-04T02:21:22.862Z,58.10
2018-05-04T02:23:50.341Z,58.10
2018-05-04T02:26:24.774Z,57.90
2018-05-04T02:28:52.243Z,58.00
2018-05-04T02:31:19.740Z,58.10
2018-05-04T02:33:47.983Z,58.30
2018-05-04T02:36:15.668Z,58.30
2018-05-04T02:38:43.392Z,58.30
2018-05-04T02:41:11.560Z,58.40
2018-05-04T02:43:39.036Z,58.50
2018-05-04T02:46:06.748Z,58.60
2018-05-04T02:48:34.227Z,58.60
2018-05-04T02:51:01.716Z,58.60
2018-05-04T02:53:29.434Z,58.60
2018-05-04T02:55:56.940Z,58.50
2018-05-04T02:58:44.571Z,58.50
2018-05-04T03:01:12.067Z,58.50
2018-05-04T03:03:39.561Z,58.50
2018-05-04T03:06:07.062Z,58.50
2018-05-04T03:08:34.541Z,58.40
2018-05-04T03:11:02.038Z,58.50
2018-05-04T03:13:29.571Z,58.60
2018-05-04T03:15:57.371Z,58.80
2018-05-04T03:18:26.207Z,58.70
2018-05-04T03:20:54.434Z,58.80
2018-05-04T03:23:23.568Z,58.70
2018-05-04T03:25:51.825Z,59.30
2018-05-04T03:28:19.339Z,58.70
2018-05-04T03:30:47.072Z,58.70
2018-05-04T03:33:15.628Z,58.60
2018-05-04T03:35:43.105Z,58.60
2018-05-04T03:38:11.338Z,58.70
2018-05-04T03:40:38.967Z,58.60
2018-05-04T03:43:06.440Z,58.70
2018-05-04T03:45:33.993Z,58.70
2018-05-04T03:51:22.843Z,58.50
2018-05-04T03:53:51.477Z,58.30
2018-05-04T03:56:43.566Z,58.30
2018-05-04T03:59:22.743Z,58.30
2018-05-04T04:02:02.063Z,58.30
2018-05-04T04:04:29.568Z,58.30
2018-05-04T04:06:57.035Z,58.20
2018-05-04T04:09:25.279Z,58.40
2018-05-04T04:11:52.990Z,58.10
2018-05-04T04:14:20.475Z,58.00
2018-05-04T04:16:47.974Z,58.00
2018-05-04T04:19:15.454Z,58.00
2018-05-04T04:21:42.979Z,58.00
2018-05-04T04:24:10.670Z,57.90
2018-05-04T04:26:38.987Z,57.80
2018-05-04T04:29:06.475Z,57.70
2018-05-04T04:31:33.939Z,57.60
2018-05-04T04:34:01.478Z,57.60
2018-05-04T04:36:29.113Z,57.50
2018-05-04T04:38:56.700Z,57.50
2018-05-04T04:41:24.949Z,57.40
2018-05-04T04:43:52.420Z,57.40
2018-05-04T04:46:20.567Z,57.20
2018-05-04T04:48:48.038Z,57.30
2018-05-04T04:51:15.522Z,57.40
2018-05-04T04:53:43.288Z,57.30
2018-05-04T04:56:10.759Z,56.70
2018-05-04T04:58:38.249Z,56.20
2018-05-04T05:01:05.732Z,56.20
2018-05-04T05:03:33.231Z,56.40
2018-05-04T05:06:00.710Z,56.60
2018-05-04T05:08:29.236Z,56.30
2018-05-04T05:10:57.551Z,56.20
2018-05-04T05:13:25.963Z,56.10
2018-05-04T05:15:53.412Z,56.00
2018-05-04T05:18:26.051Z,55.90
2018-05-04T05:20:53.528Z,56.10
2018-05-04T05:23:21.025Z,56.60
2018-05-04T05:25:48.520Z,56.00
2018-05-04T05:28:21.119Z,55.80
2018-05-04T05:30:48.607Z,55.60
2018-05-04T05:33:16.905Z,55.20
2018-05-04T05:35:45.483Z,55.20
2018-05-04T05:38:13.044Z,55.00
2018-05-04T05:40:40.531Z,54.70
2018-05-04T05:43:08.015Z,54.50
2018-05-04T05:45:35.493Z,54.20
2018-05-04T05:48:08.243Z,53.90
2018-05-04T05:50:35.803Z,53.60
2018-05-04T05:53:03.267Z,53.10
2018-05-04T05:55:30.728Z,52.00
2018-05-04T05:58:08.970Z,51.70
2018-05-04T06:00:36.427Z,51.80
2018-05-04T06:03:04.338Z,51.80
2018-05-04T06:05:32.604Z,50.70
2018-05-04T06:08:00.067Z,50.70
2018-05-04T06:10:27.536Z,50.70
2018-05-04T06:12:55.019Z,51.10
2018-05-04T06:15:23.279Z,51.10
2018-05-04T06:17:51.610Z,51.00
2018-05-04T06:20:19.155Z,51.10
2018-05-04T06:22:46.886Z,51.10
2018-05-04T06:25:15.326Z,51.20
2018-05-04T06:27:53.772Z,51.10
2018-05-04T06:30:21.284Z,51.20
2018-05-04T06:32:49.584Z,51.20
2018-05-04T06:35:17.063Z,51.20
2018-05-04T06:37:49.539Z,51.40
2018-05-04T06:43:00.299Z,50.50
2018-05-04T06:45:28.440Z,50.10
2018-05-04T06:47:56.205Z,48.80
2018-05-04T06:50:23.706Z,48.50
2018-05-04T06:52:55.659Z,47.80
2018-05-04T06:55:27.081Z,47.40
2018-05-04T06:57:54.558Z,46.80
2018-05-04T07:00:22.067Z,45.60
2018-05-04T07:02:49.561Z,45.10
2018-05-04T07:05:18.210Z,44.80
2018-05-04T07:07:46.522Z,44.30
2018-05-04T07:10:14.048Z,43.60
2018-05-04T07:12:42.325Z,42.70
2018-05-04T07:15:10.646Z,42.10
2018-05-04T07:17:38.128Z,42.10
2018-05-04T07:20:06.266Z,42.60
2018-05-04T07:22:34.011Z,42.50
2018-05-04T07:25:01.757Z,43.20
2018-05-04T07:27:30.031Z,43.90
2018-05-04T07:29:57.942Z,43.80
2018-05-04T07:32:25.715Z,44.00
2018-05-04T07:34:53.441Z,44.10
2018-05-04T07:37:20.936Z,44.00
2018-05-04T07:39:51.761Z,43.80
2018-05-04T07:42:19.470Z,43.40
2018-05-04T07:44:47.223Z,43.10
2018-05-04T07:47:24.691Z,43.00
2018-05-04T07:49:53.083Z,42.90
2018-05-04T07:52:21.169Z,42.10
2018-05-04T07:54:48.924Z,41.30
2018-05-04T07:57:18.132Z,40.80
2018-05-04T07:59:45.649Z,39.40
2018-05-04T08:02:14.515Z,39.60
2018-05-04T08:04:42.347Z,39.80
2018-05-04T08:07:11.708Z,38.00
2018-05-04T08:09:40.079Z,36.80
2018-05-04T08:12:07.590Z,36.50
2018-05-04T08:14:35.439Z,36.30
2018-05-04T08:17:02.930Z,35.20
2018-05-04T08:19:30.442Z,33.70
2018-05-04T08:21:58.238Z,32.30
2018-05-04T08:24:25.743Z,31.20
2018-05-04T08:27:03.589Z,31.00
2018-05-04T08:29:31.999Z,31.10
2018-05-04T08:32:00.267Z,30.10
2018-05-04T08:34:28.572Z,30.20
2018-05-04T08:36:56.783Z,30.00
2018-05-04T08:39:27.411Z,30.30
2018-05-04T08:41:55.575Z,31.60
2018-05-04T08:46:55.900Z,33.90
2018-05-04T08:49:24.121Z,35.30
2018-05-04T08:51:51.836Z,35.10
2018-05-04T08:54:19.383Z,35.80
2018-05-04T08:56:47.605Z,36.20
2018-05-04T08:59:17.147Z,36.60
2018-05-04T09:01:45.373Z,36.50
2018-05-04T09:04:13.995Z,37.30
2018-05-04T09:06:42.569Z,36.80
2018-05-04T09:09:10.129Z,36.80
2018-05-04T09:11:38.643Z,36.50
2018-05-04T09:14:09.633Z,36.40
2018-05-04T09:16:51.839Z,36.50
2018-05-04T09:19:19.334Z,36.70
2018-05-04T09:21:47.215Z,37.20
2018-05-04T09:24:15.180Z,37.40
2018-05-04T09:26:48.092Z,37.10
2018-05-04T09:29:16.310Z,37.20
2018-05-04T09:31:46.301Z,37.50
2018-05-04T09:34:13.831Z,37.70
2018-05-04T09:36:52.292Z,36.90
2018-05-04T09:39:20.011Z,36.90
2018-05-04T09:41:48.416Z,37.20
2018-05-04T09:44:15.971Z,37.20
2018-05-04T09:46:50.311Z,37.10
2018-05-04T09:49:17.835Z,36.90
2018-05-04T09:51:47.151Z,36.40
2018-05-04T09:54:15.331Z,36.20
2018-05-04T09:57:07.392Z,36.00
2018-05-04T09:59:34.956Z,36.00
2018-05-04T10:02:03.983Z,35.80
2018-05-04T10:04:31.713Z,35.80
2018-05-04T10:07:20.613Z,35.90
2018-05-04T10:09:48.120Z,35.80
2018-05-04T10:12:15.917Z,35.60
2018-05-04T10:14:44.075Z,35.30
2018-05-04T10:17:13.482Z,34.90
2018-05-04T10:19:42.667Z,34.80
2018-05-04T10:22:11.570Z,34.80
2018-05-04T10:24:40.876Z,34.80
2018-05-04T10:27:09.086Z,34.50
2018-05-04T10:29:38.052Z,34.00
2018-05-04T10:32:05.813Z,33.70
2018-05-04T10:34:33.670Z,33.30
2018-05-04T10:37:01.671Z,32.80
2018-05-04T10:39:30.017Z,32.60
2018-05-04T10:41:58.979Z,32.60
2018-05-04T10:44:28.071Z,32.50
2018-05-04T10:46:56.685Z,32.30
2018-05-04T10:59:40.337Z,31.10
2018-05-04T11:02:08.812Z,30.60
2018-05-04T11:04:40.568Z,30.80
2018-05-04T11:17:46.179Z,30.70
2018-05-04T11:20:15.486Z,30.50
2018-05-04T11:22:43.286Z,30.00
2018-05-04T11:25:12.467Z,29.70
2018-05-04T11:27:40.131Z,29.60
2018-05-04T11:30:08.286Z,29.30
2018-05-04T11:32:36.600Z,29.20
2018-05-04T11:35:06.185Z,29.10
2018-05-04T11:37:34.272Z,29.00
2018-05-04T11:40:04.186Z,29.20
2018-05-04T11:42:32.492Z,29.40
2018-05-04T11:45:01.635Z,29.30
2018-05-04T11:47:29.328Z,29.20
2018-05-04T11:52:30.959Z,29.10
2018-05-04T11:54:58.469Z,29.10
2018-05-04T12:00:02.626Z,29.00
2018-05-04T12:02:30.278Z,29.20
2018-05-04T12:04:58.008Z,29.40
2018-05-04T12:07:27.311Z,29.20
2018-05-04T12:09:56.341Z,29.10
2018-05-04T12:12:26.276Z,29.10
2018-05-04T12:14:55.749Z,29.00
2018-05-04T12:19:57.523Z,28.90
2018-05-04T12:22:27.329Z,28.90
2018-05-04T12:24:55.677Z,28.90
2018-05-04T12:27:33.732Z,29.20
2018-05-04T12:30:01.243Z,29.50
2018-05-04T12:32:35.245Z,29.60
2018-05-04T12:35:06.199Z,29.50
2018-05-04T12:37:51.956Z,29.70
2018-05-04T12:40:19.659Z,30.00
2018-05-04T12:42:52.724Z,29.90
2018-05-04T12:45:20.266Z,29.90
2018-05-04T12:47:59.784Z,29.80
2018-05-04T12:50:49.045Z,29.90
2018-05-04T12:55:50.965Z,29.90
2018-05-04T12:58:21.601Z,30.10
2018-05-04T13:00:53.483Z,30.50
2018-05-04T13:03:21.252Z,30.80
2018-05-04T13:05:51.284Z,31.20
2018-05-04T13:08:30.145Z,31.80
2018-05-04T13:10:58.243Z,31.70
2018-05-04T13:13:25.787Z,31.70
2018-05-04T13:15:58.375Z,31.70
2018-05-04T13:18:27.608Z,31.20
2018-05-04T13:20:56.463Z,30.30
2018-05-04T13:23:25.206Z,30.80
2018-05-04T13:25:52.748Z,31.50
2018-05-04T13:28:22.103Z,31.80
2018-05-04T13:30:50.303Z,32.00
2018-05-04T13:33:18.458Z,32.10
2018-05-04T13:35:46.639Z,31.00
2018-05-04T13:38:14.165Z,31.00
2018-05-04T13:40:42.205Z,31.50
2018-05-04T13:43:09.723Z,31.90
2018-05-04T13:45:37.769Z,31.70
2018-05-04T13:48:05.628Z,31.60
2018-05-04T13:50:34.015Z,31.60
2018-05-04T13:53:01.504Z,30.80
2018-05-04T13:55:28.991Z,31.40
2018-05-04T13:58:01.781Z,32.40
2018-05-04T14:00:29.507Z,32.80
2018-05-04T14:02:57.783Z,31.70
2018-05-04T14:05:26.318Z,31.30
2018-05-04T14:07:54.241Z,31.10
2018-05-04T14:10:25.162Z,30.20
2018-05-04T14:12:53.426Z,29.90
2018-05-04T14:15:20.933Z,29.70
2018-05-04T14:17:48.403Z,29.50
2018-05-04T14:20:15.923Z,29.50
2018-05-04T14:22:43.424Z,29.40
2018-05-04T14:25:11.919Z,29.40
2018-05-04T14:27:39.806Z,29.60
2018-05-04T14:30:07.488Z,29.50
2018-05-04T14:32:35.817Z,29.80
2018-05-04T14:35:03.436Z,29.70
2018-05-04T14:37:36.188Z,29.90
2018-05-04T14:40:03.700Z,29.80
2018-05-04T14:42:31.250Z,29.80
2018-05-04T14:44:58.796Z,30.10
2018-05-04T14:47:31.476Z,31.20
2018-05-04T14:49:59.207Z,31.90
2018-05-04T14:52:27.515Z,32.00
2018-05-04T14:54:55.025Z,32.30
2018-05-04T14:57:22.550Z,32.50
2018-05-04T14:59:50.127Z,32.20
2018-05-04T15:02:17.768Z,30.50
2018-05-04T15:04:45.326Z,29.50
2018-05-04T15:07:18.158Z,28.80
2018-05-04T15:09:45.671Z,28.20
2018-05-04T15:12:13.329Z,27.50
2018-05-04T15:14:41.118Z,26.70
2018-05-04T15:17:08.734Z,26.30
2018-05-04T15:19:36.926Z,26.00
2018-05-04T15:22:04.460Z,25.70
2018-05-04T15:24:31.947Z,25.30
2018-05-04T15:26:59.694Z,24.80
2018-05-04T15:29:27.796Z,24.50
2018-05-04T15:31:55.547Z,24.10
2018-05-04T15:34:23.103Z,23.60
2018-05-04T15:36:51.532Z,22.50
2018-05-04T15:39:19.790Z,22.10
2018-05-04T15:41:51.139Z,22.30
2018-05-04T15:44:19.521Z,22.10
2018-05-04T15:46:47.131Z,22.10
2018-05-04T15:49:21.327Z,22.00
2018-05-04T15:51:55.175Z,21.90
2018-05-04T15:54:22.668Z,22.10
2018-05-04T15:56:56.101Z,22.10
2018-05-04T15:59:25.267Z,22.50
2018-05-04T16:01:52.766Z,22.50
2018-05-04T16:04:22.043Z,22.60
2018-05-04T16:07:02.116Z,22.80
2018-05-04T16:09:30.344Z,23.30
2018-05-04T16:14:29.799Z,24.10
2018-05-04T16:19:30.562Z,25.40
2018-05-04T16:22:03.800Z,25.90
2018-05-04T16:24:31.806Z,25.90
2018-05-04T16:27:03.068Z,26.50
2018-05-04T16:29:34.475Z,26.40
2018-05-04T16:32:09.829Z,26.50
2018-05-04T16:37:09.347Z,26.80
2018-05-04T16:39:40.146Z,27.10
2018-05-04T16:53:01.211Z,29.50
2018-05-04T16:58:00.995Z,30.10
2018-05-04T17:00:33.272Z,30.60
2018-05-04T17:03:04.991Z,30.40
2018-05-04T17:05:33.273Z,30.80
2018-05-04T17:13:22.700Z,30.90
2018-05-04T17:15:51.294Z,30.60
2018-05-04T17:21:02.171Z,30.90
2018-05-04T17:23:30.498Z,31.30
2018-05-04T17:25:58.445Z,32.00
2018-05-04T17:28:26.759Z,33.00
2018-05-04T17:33:31.441Z,32.70
2018-05-04T17:36:03.776Z,32.70
2018-05-04T17:39:07.000Z,32.90
2018-05-04T17:44:08.417Z,32.40
2018-05-04T17:46:36.853Z,32.20
2018-05-04T17:49:05.803Z,32.80
2018-05-04T17:51:36.786Z,32.30
2018-05-04T17:54:05.998Z,32.00
2018-05-04T17:56:37.169Z,31.90
2018-05-04T17:59:06.629Z,31.80
2018-05-04T18:01:35.461Z,31.90
2018-05-04T18:04:03.408Z,32.00
2018-05-04T18:06:31.736Z,32.20
2018-05-04T18:09:00.858Z,32.70
2018-05-04T18:11:31.378Z,33.10
2018-05-04T18:16:32.198Z,33.80
2018-05-04T18:19:00.537Z,33.80
2018-05-04T18:24:03.918Z,33.90
2018-05-04T18:26:32.159Z,33.40
2018-05-04T18:28:59.917Z,33.00
2018-05-04T18:31:27.615Z,33.00
2018-05-04T18:33:55.337Z,32.90
2018-05-04T18:36:22.870Z,33.00
2018-05-04T18:38:52.040Z,32.90
2018-05-04T18:41:19.907Z,32.60
2018-05-04T18:43:48.001Z,32.50
2018-05-04T18:46:15.487Z,32.20
2018-05-04T18:48:44.001Z,32.30
2018-05-04T18:51:11.913Z,32.30
2018-05-04T18:53:39.405Z,32.10
2018-05-04T18:56:08.938Z,31.90
2018-05-04T18:58:39.000Z,31.90
2018-05-04T19:01:08.910Z,32.30
2018-05-04T19:03:38.823Z,32.70
2018-05-04T19:06:08.387Z,33.20
2018-05-04T19:13:41.934Z,33.30
2018-05-04T19:16:14.788Z,33.30
2018-05-04T19:18:43.878Z,33.20
2018-05-04T19:21:14.704Z,33.10
2018-05-04T19:23:42.717Z,32.70
2018-05-04T19:26:10.380Z,32.60
2018-05-04T19:31:18.264Z,33.20
2018-05-04T19:33:46.851Z,32.90
2018-05-04T19:36:15.056Z,33.20
2018-05-04T19:38:44.244Z,33.40
2018-05-04T19:41:13.847Z,33.50
2018-05-04T19:43:45.588Z,34.00
2018-05-04T19:46:13.119Z,34.30
2018-05-04T19:48:45.730Z,34.60
2018-05-04T19:51:13.217Z,35.00
2018-05-04T19:53:40.935Z,35.10
2018-05-04T19:56:08.428Z,35.20
2018-05-04T19:58:36.108Z,35.20
2018-05-04T20:01:04.275Z,35.20
2018-05-04T20:03:33.435Z,35.10
2018-05-04T20:06:01.830Z,35.30
2018-05-04T20:08:31.144Z,35.30
2018-05-04T20:10:59.200Z,35.40
2018-05-04T20:13:26.725Z,35.50
2018-05-04T20:15:55.120Z,35.60
2018-05-04T20:18:23.202Z,35.60
2018-05-04T20:23:22.587Z,35.10
2018-05-04T20:25:50.880Z,34.90
2018-05-04T20:28:24.142Z,34.90
2018-05-04T20:30:52.417Z,34.90
2018-05-04T20:33:20.410Z,34.80
2018-05-04T20:35:48.690Z,35.00
2018-05-04T20:38:21.296Z,35.10
2018-05-04T20:40:48.783Z,35.30
2018-05-04T20:43:16.295Z,35.40
2018-05-04T20:45:43.763Z,35.20
2018-05-04T20:48:12.380Z,35.10
2018-05-04T20:50:39.960Z,35.20
2018-05-04T20:53:09.063Z,35.90
2018-05-04T20:58:18.254Z,36.30
2018-05-04T21:00:45.892Z,36.30
2018-05-04T21:03:14.524Z,36.20
2018-05-04T21:05:43.188Z,36.00
2018-05-04T21:08:15.689Z,36.00
2018-05-04T21:10:43.731Z,36.20
2018-05-04T21:13:12.264Z,36.30
2018-05-04T21:15:40.664Z,36.20
2018-05-04T21:18:10.187Z,36.00
2018-05-04T21:23:11.827Z,35.80
2018-05-04T21:25:40.484Z,35.80
2018-05-04T21:28:08.259Z,36.20
2018-05-04T21:30:36.672Z,35.60
2018-05-04T21:33:04.436Z,35.80
2018-05-04T21:35:32.782Z,35.80
2018-05-04T21:38:01.270Z,36.10
2018-05-04T21:40:29.805Z,37.10
2018-05-04T21:42:58.620Z,36.40
2018-05-04T21:45:28.156Z,37.20
2018-05-04T21:47:56.288Z,36.90
2018-05-04T21:50:23.794Z,37.10
2018-05-04T21:52:52.781Z,37.70
2018-05-04T21:55:21.029Z,37.80
2018-05-04T21:57:49.116Z,37.70
2018-05-04T22:00:17.776Z,37.80
2018-05-04T22:02:45.284Z,38.00
2018-05-04T22:05:13.537Z,38.20
2018-05-04T22:07:42.442Z,38.60
2018-05-04T22:10:12.268Z,39.10
2018-05-04T22:12:40.703Z,39.30
2018-05-04T22:15:09.327Z,40.50
2018-05-04T22:17:37.166Z,40.80
2018-05-04T22:20:05.651Z,41.60
2018-05-04T22:22:34.127Z,41.90
2018-05-04T22:25:01.628Z,41.80
2018-05-04T22:27:29.280Z,42.20
2018-05-04T22:29:56.788Z,42.70
2018-05-04T22:32:24.272Z,43.00
2018-05-04T22:34:51.795Z,43.40
2018-05-04T22:37:19.443Z,43.90
2018-05-04T22:39:46.931Z,44.20
2018-05-04T22:42:14.456Z,44.60
2018-05-04T22:44:42.706Z,45.20
2018-05-04T22:47:20.362Z,45.10
2018-05-04T22:49:47.869Z,45.40
2018-05-04T22:52:15.411Z,45.40
2018-05-04T22:54:42.897Z,45.60
2018-05-04T22:57:10.715Z,45.70
2018-05-04T22:59:39.079Z,46.20
2018-05-04T23:02:06.572Z,46.00
2018-05-04T23:04:34.054Z,46.10
2018-05-04T23:07:01.604Z,46.50
2018-05-04T23:09:29.135Z,46.60
2018-05-04T23:11:57.392Z,47.00
2018-05-04T23:14:24.908Z,46.90
2018-05-04T23:16:52.908Z,47.10
2018-05-04T23:19:20.657Z,47.30
2018-05-04T23:21:48.161Z,47.60
2018-05-04T23:24:15.655Z,47.70
2018-05-04T23:26:43.164Z,47.80
2018-05-04T23:29:10.868Z,48.00
2018-05-04T23:31:38.575Z,48.20
2018-05-04T23:34:06.062Z,48.40
2018-05-04T23:36:33.546Z,48.60
2018-05-04T23:39:01.233Z,48.80
2018-05-04T23:41:28.725Z,49.00
2018-05-04T23:43:56.479Z,49.20
2018-05-04T23:46:23.963Z,49.50
2018-05-04T23:48:51.663Z,49.60
2018-05-04T23:51:19.263Z,49.80
2018-05-04T23:53:46.789Z,50.00
2018-05-04T23:56:15.124Z,50.50
2018-05-04T23:58:42.719Z,50.40
